createdAt,value
2022-12-14T00:02:00.768Z,38.20
2022-12-14T00:04:27.238Z,37.30
2022-12-14T00:06:53.733Z,38.20
2022-12-14T00:09:20.217Z,38.30
2022-12-14T00:11:46.698Z,38.20
2022-12-14T00:14:13.197Z,38.30
2022-12-14T00:16:39.682Z,38.20
2022-12-14T00:19:06.157Z,38.20
2022-12-14T00:21:32.623Z,38.30
2022-12-14T00:23:59.103Z,38.20
2022-12-14T00:26:25.570Z,38.20
2022-12-14T00:28:52.022Z,38.20
2022-12-14T00:31:18.543Z,38.00
2022-12-14T00:33:45.049Z,38.10
2022-12-14T00:36:11.511Z,37.20
2022-12-14T00:38:37.992Z,38.00
2022-12-14T00:41:04.473Z,37.80
2022-12-14T00:43:30.936Z,37.80
2022-12-14T00:45:57.428Z,37.80
2022-12-14T00:48:24.158Z,38.20
2022-12-14T00:50:51.083Z,38.10
2022-12-14T00:53:19.367Z,38.10
2022-12-14T00:55:49.443Z,38.10
2022-12-14T00:58:16.233Z,38.00
2022-12-14T01:00:42.705Z,37.90
2022-12-14T01:03:09.174Z,37.80
2022-12-14T01:05:35.655Z,37.80
2022-12-14T01:08:02.129Z,37.60
2022-12-14T01:10:28.603Z,37.70
2022-12-14T01:12:55.062Z,36.70
2022-12-14T01:15:21.532Z,37.70
2022-12-14T01:17:48.023Z,37.80
2022-12-14T01:20:14.507Z,37.60
2022-12-14T01:22:40.979Z,37.80
2022-12-14T01:25:07.503Z,37.80
2022-12-14T01:27:33.978Z,37.30
2022-12-14T01:30:00.432Z,37.70
2022-12-14T01:32:26.894Z,37.50
2022-12-14T01:34:53.383Z,37.50
2022-12-14T01:37:19.841Z,37.50
2022-12-14T01:39:46.293Z,37.70
2022-12-14T01:42:12.734Z,37.60
2022-12-14T01:44:39.214Z,37.70
2022-12-14T01:47:12.223Z,37.60
2022-12-14T01:49:39.207Z,37.70
2022-12-14T01:52:05.688Z,37.70
2022-12-14T01:54:32.168Z,37.70
2022-12-14T01:56:58.634Z,37.50
2022-12-14T01:59:25.098Z,37.60
2022-12-14T02:01:51.620Z,37.60
2022-12-14T02:04:18.166Z,37.30
2022-12-14T02:06:44.645Z,37.60
2022-12-14T02:09:11.137Z,37.60
2022-12-14T02:11:37.587Z,37.30
2022-12-14T02:14:04.094Z,37.30
2022-12-14T02:16:30.612Z,37.50
2022-12-14T02:19:00.656Z,37.40
2022-12-14T02:21:27.131Z,37.00
2022-12-14T02:23:53.615Z,37.20
2022-12-14T02:26:20.091Z,37.20
2022-12-14T02:28:46.574Z,37.10
2022-12-14T02:31:13.168Z,37.30
2022-12-14T02:33:39.699Z,37.20
2022-12-14T02:36:06.191Z,37.00
2022-12-14T02:38:32.724Z,37.10
2022-12-14T02:40:59.183Z,37.00
2022-12-14T02:43:25.895Z,37.00
2022-12-14T02:45:52.648Z,36.90
2022-12-14T02:48:19.109Z,37.00
2022-12-14T02:50:45.589Z,37.20
2022-12-14T02:53:12.045Z,37.10
2022-12-14T02:55:38.512Z,37.10
2022-12-14T02:58:04.989Z,37.20
2022-12-14T03:00:31.517Z,37.00
2022-12-14T03:02:58.108Z,36.90
2022-12-14T03:05:30.570Z,36.90
2022-12-14T03:07:57.149Z,36.70
2022-12-14T03:10:23.630Z,36.80
2022-12-14T03:12:50.102Z,36.90
2022-12-14T03:15:16.594Z,36.80
2022-12-14T03:17:43.054Z,36.90
2022-12-14T03:20:15.509Z,36.90
2022-12-14T03:22:41.976Z,37.00
2022-12-14T03:25:08.452Z,37.10
2022-12-14T03:27:34.940Z,37.00
2022-12-14T03:30:01.430Z,36.80
2022-12-14T03:32:27.905Z,36.60
2022-12-14T03:34:54.386Z,36.80
2022-12-14T03:37:20.864Z,37.30
2022-12-14T03:39:47.324Z,37.00
2022-12-14T03:42:13.783Z,36.70
2022-12-14T03:44:48.793Z,36.90
2022-12-14T03:47:15.641Z,37.20
2022-12-14T03:49:42.169Z,37.00
2022-12-14T03:52:12.609Z,36.70
2022-12-14T03:54:39.089Z,36.80
2022-12-14T03:57:05.542Z,36.70
2022-12-14T03:59:32.001Z,36.90
2022-12-14T04:01:58.596Z,37.00
2022-12-14T04:04:25.109Z,36.80
2022-12-14T04:06:51.591Z,36.50
2022-12-14T04:09:18.063Z,36.60
2022-12-14T04:11:44.556Z,36.80
2022-12-14T04:14:11.033Z,36.90
2022-12-14T04:16:37.557Z,36.50
2022-12-14T04:19:04.057Z,36.70
2022-12-14T04:21:30.513Z,36.60
2022-12-14T04:23:56.978Z,36.60
2022-12-14T04:26:23.468Z,36.80
2022-12-14T04:28:49.936Z,36.70
2022-12-14T04:31:16.450Z,36.50
2022-12-14T04:33:43.040Z,36.50
2022-12-14T04:36:09.519Z,36.80
2022-12-14T04:38:35.987Z,36.50
2022-12-14T04:41:02.442Z,36.50
2022-12-14T04:43:29.206Z,36.40
2022-12-14T04:45:55.982Z,36.60
2022-12-14T04:48:22.494Z,36.90
2022-12-14T04:50:48.975Z,36.60
2022-12-14T04:53:15.454Z,36.40
2022-12-14T04:55:41.926Z,36.60
2022-12-14T04:58:08.385Z,36.60
2022-12-14T05:00:34.916Z,36.60
2022-12-14T05:03:01.456Z,36.70
2022-12-14T05:05:27.959Z,36.80
2022-12-14T05:07:54.441Z,36.70
2022-12-14T05:10:20.909Z,36.80
2022-12-14T05:12:47.424Z,37.00
2022-12-14T05:15:13.896Z,36.70
2022-12-14T05:17:40.388Z,36.70
2022-12-14T05:20:06.847Z,36.60
2022-12-14T05:22:33.339Z,36.70
2022-12-14T05:24:59.840Z,36.60
2022-12-14T05:27:26.328Z,36.50
2022-12-14T05:29:52.816Z,36.40
2022-12-14T05:32:19.297Z,36.50
2022-12-14T05:34:45.779Z,36.50
2022-12-14T05:37:17.935Z,36.50
2022-12-14T05:39:44.951Z,36.80
2022-12-14T05:42:11.431Z,36.60
2022-12-14T05:44:37.892Z,36.50
2022-12-14T05:47:04.390Z,36.40
2022-12-14T05:49:30.870Z,36.30
2022-12-14T05:51:57.326Z,36.50
2022-12-14T05:54:23.785Z,36.50
2022-12-14T05:56:50.255Z,36.40
2022-12-14T05:59:16.745Z,36.50
2022-12-14T06:01:43.247Z,36.70
2022-12-14T06:04:09.779Z,36.60
2022-12-14T06:06:36.288Z,36.40
2022-12-14T06:09:02.761Z,36.60
2022-12-14T06:11:29.242Z,36.50
2022-12-14T06:13:55.708Z,36.50
2022-12-14T06:16:22.236Z,36.50
2022-12-14T06:18:48.759Z,36.40
2022-12-14T06:21:15.241Z,36.30
2022-12-14T06:23:41.708Z,36.30
2022-12-14T06:26:08.186Z,36.30
2022-12-14T06:28:34.670Z,36.20
2022-12-14T06:31:01.204Z,36.20
2022-12-14T06:33:27.958Z,36.40
2022-12-14T06:35:54.768Z,36.30
2022-12-14T06:38:21.252Z,36.30
2022-12-14T06:40:47.722Z,36.40
2022-12-14T06:43:14.180Z,36.30
2022-12-14T06:45:40.652Z,36.50
2022-12-14T06:48:07.129Z,36.30
2022-12-14T06:50:33.675Z,36.40
2022-12-14T06:53:00.146Z,36.50
2022-12-14T06:55:26.621Z,36.30
2022-12-14T06:57:53.085Z,36.50
2022-12-14T07:00:19.535Z,36.40
2022-12-14T07:02:46.158Z,36.30
2022-12-14T07:05:12.776Z,36.20
2022-12-14T07:07:39.257Z,36.10
2022-12-14T07:10:05.747Z,36.30
2022-12-14T07:12:32.241Z,36.20
2022-12-14T07:14:58.688Z,36.10
2022-12-14T07:17:25.167Z,36.30
2022-12-14T07:19:51.635Z,36.40
2022-12-14T07:22:18.105Z,36.50
2022-12-14T07:24:44.569Z,36.40
2022-12-14T07:27:11.041Z,36.40
2022-12-14T07:29:37.513Z,36.30
2022-12-14T07:32:03.978Z,36.30
2022-12-14T07:34:30.436Z,36.30
2022-12-14T07:36:56.912Z,36.30
2022-12-14T07:39:23.390Z,36.20
2022-12-14T07:41:49.868Z,36.50
2022-12-14T07:44:16.339Z,36.40
2022-12-14T07:46:42.845Z,36.30
2022-12-14T07:49:09.332Z,36.40
2022-12-14T07:51:35.802Z,36.60
2022-12-14T07:54:02.307Z,36.40
2022-12-14T07:56:28.803Z,36.30
2022-12-14T07:58:55.291Z,36.20
2022-12-14T08:01:21.800Z,36.20
2022-12-14T08:03:48.335Z,36.30
2022-12-14T08:06:14.846Z,36.20
2022-12-14T08:08:41.361Z,36.30
2022-12-14T08:11:07.851Z,36.20
2022-12-14T08:13:34.363Z,36.30
2022-12-14T08:16:00.942Z,36.20
2022-12-14T08:18:27.503Z,36.30
2022-12-14T08:20:53.982Z,36.60
2022-12-14T08:23:20.514Z,36.70
2022-12-14T08:25:47.020Z,36.50
2022-12-14T08:28:13.549Z,36.50
2022-12-14T08:30:40.089Z,36.50
2022-12-14T08:33:06.588Z,36.10
2022-12-14T08:35:33.095Z,37.00
2022-12-14T08:37:59.582Z,36.50
2022-12-14T08:40:26.167Z,36.60
2022-12-14T08:42:52.726Z,36.50
2022-12-14T08:45:19.239Z,36.50
2022-12-14T08:47:45.722Z,36.20
2022-12-14T08:50:12.216Z,36.30
2022-12-14T08:52:38.732Z,36.50
2022-12-14T08:55:05.232Z,36.20
2022-12-14T08:57:31.753Z,36.30
2022-12-14T09:00:02.811Z,36.30
2022-12-14T09:02:29.710Z,36.30
2022-12-14T09:04:56.328Z,36.30
2022-12-14T09:07:22.814Z,36.40
2022-12-14T09:09:49.313Z,36.40
2022-12-14T09:12:15.854Z,36.40
2022-12-14T09:14:42.364Z,36.50
2022-12-14T09:17:08.986Z,36.40
2022-12-14T09:19:35.491Z,36.50
2022-12-14T09:22:02.016Z,36.50
2022-12-14T09:24:28.642Z,36.40
2022-12-14T09:26:55.140Z,36.50
2022-12-14T09:29:21.647Z,36.50
2022-12-14T09:31:48.174Z,36.30
2022-12-14T09:34:14.698Z,36.30
2022-12-14T09:36:41.206Z,36.40
2022-12-14T09:39:07.693Z,36.30
2022-12-14T09:41:37.208Z,36.50
2022-12-14T09:44:03.719Z,36.30
2022-12-14T09:46:30.231Z,36.20
2022-12-14T09:48:56.744Z,36.80
2022-12-14T09:51:23.304Z,36.30
2022-12-14T09:53:49.820Z,36.30
2022-12-14T09:56:16.346Z,36.30
2022-12-14T09:58:42.835Z,36.40
2022-12-14T10:01:09.452Z,36.40
2022-12-14T10:03:36.713Z,36.50
2022-12-14T10:06:03.877Z,36.40
2022-12-14T10:08:30.798Z,36.40
2022-12-14T10:11:00.937Z,36.50
2022-12-14T10:13:27.756Z,36.50
2022-12-14T10:15:54.525Z,36.40
2022-12-14T10:18:57.768Z,36.50
2022-12-14T10:21:07.535Z,36.60
2022-12-14T10:23:34.040Z,36.50
2022-12-14T10:26:00.543Z,36.50
2022-12-14T10:28:27.331Z,36.50
2022-12-14T10:30:54.165Z,36.70
2022-12-14T10:33:25.141Z,36.60
2022-12-14T10:35:51.664Z,36.60
2022-12-14T10:38:18.168Z,36.40
2022-12-14T10:40:44.656Z,36.60
2022-12-14T10:43:16.003Z,36.50
2022-12-14T10:45:42.796Z,36.60
2022-12-14T10:48:09.431Z,36.90
2022-12-14T10:50:35.934Z,36.80
2022-12-14T10:53:02.429Z,36.80
2022-12-14T10:55:28.944Z,36.60
2022-12-14T10:57:56.550Z,36.60
2022-12-14T11:00:23.790Z,36.60
2022-12-14T11:02:50.670Z,36.70
2022-12-14T11:05:17.245Z,37.20
2022-12-14T11:07:43.939Z,36.50
2022-12-14T11:10:10.428Z,36.60
2022-12-14T11:12:36.910Z,36.70
2022-12-14T11:15:03.424Z,36.60
2022-12-14T11:17:30.076Z,36.60
2022-12-14T11:19:56.621Z,36.50
2022-12-14T11:22:23.107Z,36.60
2022-12-14T11:24:49.629Z,36.60
2022-12-14T11:27:16.180Z,36.80
2022-12-14T11:29:42.681Z,37.20
2022-12-14T11:32:09.202Z,36.60
2022-12-14T11:34:35.709Z,36.50
2022-12-14T11:37:02.234Z,36.60
2022-12-14T11:39:28.738Z,36.50
2022-12-14T11:41:55.252Z,36.70
2022-12-14T11:44:21.761Z,36.60
2022-12-14T11:46:48.312Z,36.70
2022-12-14T11:49:19.183Z,36.70
2022-12-14T11:51:45.706Z,36.80
2022-12-14T11:54:15.676Z,36.70
2022-12-14T11:56:42.190Z,36.70
2022-12-14T11:59:08.696Z,36.70
2022-12-14T12:01:35.276Z,36.70
2022-12-14T12:04:01.906Z,36.60
2022-12-14T12:06:28.444Z,37.00
2022-12-14T12:08:54.932Z,36.90
2022-12-14T12:11:21.447Z,37.00
2022-12-14T12:13:48.018Z,36.80
2022-12-14T12:16:14.596Z,36.80
2022-12-14T12:18:46.305Z,36.60
2022-12-14T12:21:13.227Z,36.60
2022-12-14T12:23:39.716Z,37.20
2022-12-14T12:26:06.209Z,36.70
2022-12-14T12:28:33.036Z,36.60
2022-12-14T12:30:59.745Z,36.70
2022-12-14T12:33:26.262Z,36.70
2022-12-14T12:35:52.756Z,36.70
2022-12-14T12:38:19.255Z,36.60
2022-12-14T12:40:45.759Z,36.80
2022-12-14T12:43:12.280Z,36.60
2022-12-14T12:45:38.792Z,36.60
2022-12-14T12:48:05.358Z,36.60
2022-12-14T12:50:31.922Z,36.80
2022-12-14T12:53:03.059Z,37.00
2022-12-14T12:55:30.302Z,37.10
2022-12-14T12:57:56.814Z,36.90
2022-12-14T13:00:23.319Z,36.80
2022-12-14T13:02:50.722Z,37.20
2022-12-14T13:08:05.541Z,37.30
2022-12-14T13:10:32.067Z,37.30
2022-12-14T13:12:58.577Z,37.20
2022-12-14T13:15:25.072Z,36.80
2022-12-14T13:17:51.586Z,36.60
2022-12-14T13:20:18.085Z,37.10
2022-12-14T13:22:44.586Z,37.10
2022-12-14T13:25:16.038Z,37.00
2022-12-14T13:27:42.528Z,37.00
2022-12-14T13:30:09.066Z,37.20
2022-12-14T13:32:37.569Z,37.10
2022-12-14T13:35:04.367Z,37.40
2022-12-14T13:37:31.036Z,37.10
2022-12-14T13:39:57.529Z,37.00
2022-12-14T13:42:24.038Z,36.90
2022-12-14T13:44:50.537Z,37.00
2022-12-14T13:47:17.058Z,37.00
2022-12-14T13:49:43.544Z,37.00
2022-12-14T13:52:10.055Z,37.10
2022-12-14T13:54:36.558Z,37.00
2022-12-14T13:57:03.060Z,37.00
2022-12-14T13:59:29.573Z,36.90
2022-12-14T14:01:56.242Z,37.30
2022-12-14T14:04:22.912Z,37.30
2022-12-14T14:06:49.457Z,37.20
2022-12-14T14:09:15.980Z,37.00
2022-12-14T14:11:42.487Z,36.90
2022-12-14T14:14:08.982Z,36.90
2022-12-14T14:16:35.515Z,37.20
2022-12-14T14:19:02.049Z,37.40
2022-12-14T14:21:28.537Z,37.30
2022-12-14T14:23:55.037Z,37.10
2022-12-14T14:26:21.519Z,37.20
2022-12-14T14:28:49.499Z,37.50
2022-12-14T14:31:16.214Z,37.10
2022-12-14T14:33:46.182Z,36.80
2022-12-14T14:36:13.979Z,36.60
2022-12-14T14:38:40.476Z,36.60
2022-12-14T14:41:16.586Z,36.80
2022-12-14T14:43:44.069Z,36.80
2022-12-14T14:46:22.196Z,37.00
2022-12-14T14:48:49.214Z,36.80
2022-12-14T14:51:15.700Z,37.30
2022-12-14T14:53:42.228Z,36.50
2022-12-14T14:56:08.723Z,36.70
2022-12-14T14:58:35.707Z,36.70
2022-12-14T15:01:02.444Z,36.50
2022-12-14T15:03:28.993Z,36.30
2022-12-14T15:05:55.542Z,36.30
2022-12-14T15:08:22.051Z,36.30
2022-12-14T15:10:48.547Z,36.60
2022-12-14T15:13:19.308Z,36.50
2022-12-14T15:15:45.788Z,36.80
2022-12-14T15:18:12.280Z,36.40
2022-12-14T15:20:38.786Z,36.00
2022-12-14T15:23:05.270Z,36.30
2022-12-14T15:25:31.778Z,36.50
2022-12-14T15:27:58.264Z,36.70
2022-12-14T15:30:24.767Z,36.20
2022-12-14T15:32:51.265Z,36.40
2022-12-14T15:35:17.795Z,36.10
2022-12-14T15:37:44.281Z,36.50
2022-12-14T15:40:10.801Z,36.50
2022-12-14T15:42:37.302Z,36.50
2022-12-14T15:45:03.822Z,36.40
2022-12-14T15:47:30.337Z,36.50
2022-12-14T15:50:01.317Z,36.70
2022-12-14T15:52:29.657Z,36.40
2022-12-14T15:54:56.154Z,36.80
2022-12-14T15:57:22.671Z,36.60
2022-12-14T15:59:49.317Z,36.40
2022-12-14T16:02:16.106Z,36.80
2022-12-14T16:04:42.838Z,36.70
2022-12-14T16:07:09.994Z,36.50
2022-12-14T16:09:36.603Z,36.60
2022-12-14T16:12:03.130Z,36.50
2022-12-14T16:14:29.629Z,36.60
2022-12-14T16:16:56.206Z,36.50
2022-12-14T16:19:28.380Z,36.50
2022-12-14T16:21:56.402Z,36.70
2022-12-14T16:24:22.909Z,36.80
2022-12-14T16:26:49.400Z,36.60
2022-12-14T16:29:15.884Z,36.60
2022-12-14T16:31:42.409Z,36.70
2022-12-14T16:34:09.003Z,36.80
2022-12-14T16:36:35.513Z,37.20
2022-12-14T16:39:02.038Z,36.70
2022-12-14T16:41:28.551Z,37.50
2022-12-14T16:43:55.048Z,36.80
2022-12-14T16:46:21.639Z,36.50
2022-12-14T16:48:50.408Z,36.80
2022-12-14T16:51:18.747Z,36.80
2022-12-14T16:53:51.309Z,36.70
2022-12-14T16:56:17.844Z,36.50
2022-12-14T16:58:44.339Z,36.60
2022-12-14T17:01:10.939Z,36.50
2022-12-14T17:03:38.216Z,36.60
2022-12-14T17:06:05.144Z,36.60
2022-12-14T17:08:31.644Z,36.50
2022-12-14T17:10:58.173Z,36.50
2022-12-14T17:13:24.666Z,36.50
2022-12-14T17:15:51.193Z,36.50
2022-12-14T17:18:17.692Z,36.40
2022-12-14T17:20:44.225Z,36.40
2022-12-14T17:23:10.713Z,36.50
2022-12-14T17:25:37.226Z,36.50
2022-12-14T17:28:03.741Z,36.50
2022-12-14T17:30:30.334Z,36.60
2022-12-14T17:32:59.602Z,36.50
2022-12-14T17:35:26.144Z,36.30
2022-12-14T17:37:52.670Z,36.10
2022-12-14T17:40:19.199Z,36.40
2022-12-14T17:42:45.711Z,36.50
2022-12-14T17:45:12.209Z,36.30
2022-12-14T17:47:38.709Z,36.30
2022-12-14T17:50:05.195Z,36.10
2022-12-14T17:52:31.755Z,36.10
2022-12-14T17:54:58.318Z,36.30
2022-12-14T17:57:24.826Z,36.40
2022-12-14T17:59:51.316Z,36.40
2022-12-14T18:02:18.123Z,36.30
2022-12-14T18:04:44.804Z,36.20
2022-12-14T18:07:11.289Z,36.20
2022-12-14T18:09:37.790Z,36.40
2022-12-14T18:14:50.815Z,36.60
2022-12-14T18:17:18.612Z,36.40
2022-12-14T18:19:45.165Z,36.30
2022-12-14T18:22:14.478Z,36.20
2022-12-14T18:24:41.033Z,36.10
2022-12-14T18:27:07.635Z,36.20
2022-12-14T18:29:34.221Z,36.00
2022-12-14T18:32:00.819Z,36.00
2022-12-14T18:34:27.428Z,35.80
2022-12-14T18:36:54.003Z,36.10
2022-12-14T18:39:20.492Z,36.00
2022-12-14T18:41:47.006Z,35.80
2022-12-14T18:44:13.514Z,35.80
2022-12-14T18:46:43.422Z,35.80
2022-12-14T18:49:15.793Z,35.80
2022-12-14T18:51:42.300Z,35.80
2022-12-14T18:54:08.794Z,35.60
2022-12-14T18:56:35.315Z,35.60
2022-12-14T18:59:01.823Z,35.60
2022-12-14T19:01:28.424Z,35.50
2022-12-14T19:03:55.112Z,35.50
2022-12-14T19:09:08.174Z,35.60
2022-12-14T19:11:34.725Z,35.50
2022-12-14T19:14:01.223Z,35.60
2022-12-14T19:16:27.833Z,35.60
2022-12-14T19:18:54.357Z,35.70
2022-12-14T19:21:20.859Z,36.20
2022-12-14T19:23:47.357Z,35.60
2022-12-14T19:26:13.836Z,35.50
2022-12-14T19:28:40.341Z,35.80
2022-12-14T19:31:06.927Z,35.80
2022-12-14T19:33:33.956Z,35.60
2022-12-14T19:36:00.796Z,35.90
2022-12-14T19:38:27.293Z,35.60
2022-12-14T19:40:53.804Z,35.70
2022-12-14T19:43:20.325Z,35.80
2022-12-14T19:45:46.826Z,36.20
2022-12-14T19:48:13.679Z,36.20
2022-12-14T19:50:40.319Z,35.80
2022-12-14T19:53:06.819Z,36.00
2022-12-14T19:55:33.306Z,36.10
2022-12-14T19:57:59.804Z,35.90
2022-12-14T20:00:26.361Z,35.80
2022-12-14T20:02:53.001Z,36.00
2022-12-14T20:05:19.580Z,36.00
2022-12-14T20:07:46.077Z,36.10
2022-12-14T20:10:12.566Z,36.30
2022-12-14T20:12:39.066Z,36.30
2022-12-14T20:15:05.555Z,36.20
2022-12-14T20:17:32.057Z,36.00
2022-12-14T20:19:58.549Z,36.00
2022-12-14T20:22:25.064Z,36.20
2022-12-14T20:24:51.634Z,36.10
2022-12-14T20:27:18.166Z,36.00
2022-12-14T20:29:44.660Z,36.30
2022-12-14T20:32:11.153Z,36.30
2022-12-14T20:34:37.669Z,36.20
2022-12-14T20:37:04.164Z,36.10
2022-12-14T20:39:30.672Z,36.00
2022-12-14T20:41:57.165Z,36.00
2022-12-14T20:44:25.452Z,36.20
2022-12-14T20:46:51.980Z,36.30
2022-12-14T20:49:18.552Z,36.10
2022-12-14T20:51:45.039Z,36.00
2022-12-14T20:54:11.538Z,36.10
2022-12-14T20:56:38.044Z,36.40
2022-12-14T20:59:04.564Z,36.30
2022-12-14T21:01:34.183Z,36.40
2022-12-14T21:04:00.851Z,36.30
2022-12-14T21:06:27.369Z,36.40
2022-12-14T21:08:53.859Z,36.50
2022-12-14T21:11:20.341Z,36.50
2022-12-14T21:13:46.838Z,36.30
2022-12-14T21:16:13.365Z,36.30
2022-12-14T21:18:39.885Z,36.30
2022-12-14T21:21:06.395Z,36.60
2022-12-14T21:23:32.985Z,36.50
2022-12-14T21:25:59.666Z,36.60
2022-12-14T21:28:31.812Z,36.50
2022-12-14T21:30:58.681Z,36.70
2022-12-14T21:33:25.163Z,36.80
2022-12-14T21:35:51.678Z,36.70
2022-12-14T21:38:18.171Z,36.90
2022-12-14T21:40:44.661Z,36.80
2022-12-14T21:43:11.155Z,36.70
2022-12-14T21:45:37.729Z,36.70
2022-12-14T21:48:04.259Z,36.70
2022-12-14T21:50:30.775Z,36.60
2022-12-14T21:52:57.280Z,36.70
2022-12-14T21:55:23.793Z,36.90
2022-12-14T21:57:50.874Z,36.60
2022-12-14T22:00:17.458Z,36.60
2022-12-14T22:02:44.131Z,36.70
2022-12-14T22:05:10.746Z,36.80
2022-12-14T22:07:37.239Z,36.90
2022-12-14T22:10:03.774Z,37.10
2022-12-14T22:12:30.288Z,37.00
2022-12-14T22:14:56.784Z,36.80
2022-12-14T22:17:23.303Z,36.90
2022-12-14T22:19:49.804Z,36.80
2022-12-14T22:22:16.343Z,37.00
2022-12-14T22:24:42.877Z,36.90
2022-12-14T22:27:09.375Z,36.90
2022-12-14T22:29:37.478Z,36.80
2022-12-14T22:32:04.081Z,36.90
2022-12-14T22:34:30.655Z,36.90
2022-12-14T22:36:57.169Z,36.90
2022-12-14T22:39:23.660Z,37.10
2022-12-14T22:41:50.169Z,37.60
2022-12-14T22:44:16.668Z,37.00
2022-12-14T22:46:43.188Z,37.00
2022-12-14T22:49:09.694Z,37.50
2022-12-14T22:51:36.209Z,37.00
2022-12-14T22:54:02.706Z,36.80
2022-12-14T22:56:29.202Z,36.90
2022-12-14T22:58:55.709Z,37.00
2022-12-14T23:01:25.585Z,37.30
2022-12-14T23:03:52.230Z,36.80
2022-12-14T23:06:18.802Z,36.90
2022-12-14T23:08:45.299Z,36.90
2022-12-14T23:11:11.800Z,36.80
2022-12-14T23:13:38.306Z,36.90
2022-12-14T23:16:04.798Z,36.70
2022-12-14T23:18:31.272Z,37.00
2022-12-14T23:21:01.576Z,36.80
2022-12-14T23:23:28.509Z,36.90
2022-12-14T23:25:55.368Z,36.80
2022-12-14T23:28:21.850Z,36.90
2022-12-14T23:30:48.431Z,36.90
2022-12-14T23:33:14.945Z,37.00
2022-12-14T23:35:41.442Z,37.10
2022-12-14T23:38:07.953Z,37.20
2022-12-14T23:40:37.589Z,37.20
2022-12-14T23:43:04.111Z,37.40
2022-12-14T23:45:30.633Z,37.30
2022-12-14T23:47:57.131Z,37.30
2022-12-14T23:50:23.647Z,37.30
2022-12-14T23:52:50.153Z,37.10
2022-12-14T23:55:16.636Z,37.00
2022-12-14T23:57:43.125Z,37.00
